createdAt,value
2022-12-12T00:02:16.324Z,98077.69
2022-12-12T00:04:47.078Z,98081.86
2022-12-12T00:07:17.714Z,98078.64
2022-12-12T00:09:48.449Z,98075.23
2022-12-12T00:12:19.299Z,98077.02
2022-12-12T00:14:50.030Z,98079.34
2022-12-12T00:17:20.767Z,98076.66
2022-12-12T00:19:51.413Z,98076.12
2022-12-12T00:22:22.017Z,98080.34
2022-12-12T00:24:52.772Z,98080.24
2022-12-12T00:27:24.231Z,98079.92
2022-12-12T00:29:56.510Z,98078.52
2022-12-12T00:32:27.239Z,98076.56
2022-12-12T00:34:57.874Z,98075.56
2022-12-12T00:37:28.884Z,98081.21
2022-12-12T00:39:59.570Z,98079.58
2022-12-12T00:42:30.291Z,98079.93
2022-12-12T00:45:01.542Z,98078.25
2022-12-12T00:47:33.062Z,98079.44
2022-12-12T00:50:04.352Z,98075.67
2022-12-12T00:52:35.231Z,98076.99
2022-12-12T00:55:07.164Z,98074.31
2022-12-12T00:57:37.893Z,98073.77
2022-12-12T01:00:10.643Z,98076.02
2022-12-12T01:02:41.573Z,98076.50
2022-12-12T01:05:13.276Z,98081.75
2022-12-12T01:07:44.161Z,98078.61
2022-12-12T01:10:14.849Z,98074.87
2022-12-12T01:12:45.728Z,98071.71
2022-12-12T01:15:16.493Z,98077.11
2022-12-12T01:17:47.138Z,98077.32
2022-12-12T01:20:21.474Z,98078.80
2022-12-12T01:22:52.752Z,98078.71
2022-12-12T01:25:23.948Z,98080.96
2022-12-12T01:27:55.021Z,98082.97
2022-12-12T01:30:26.467Z,98080.92
2022-12-12T01:32:57.327Z,98078.98
2022-12-12T01:35:28.682Z,98079.28
2022-12-12T01:37:59.287Z,98075.05
2022-12-12T01:40:31.922Z,98080.47
2022-12-12T01:43:03.898Z,98079.69
2022-12-12T01:46:14.470Z,98078.55
2022-12-12T01:48:51.007Z,98076.00
2022-12-12T01:51:25.954Z,98075.66
2022-12-12T01:54:02.832Z,98073.65
2022-12-12T01:56:34.787Z,98070.22
2022-12-12T01:59:07.030Z,98075.55
2022-12-12T02:01:38.717Z,98071.60
2022-12-12T02:04:10.770Z,98071.16
2022-12-12T02:06:43.029Z,98075.45
2022-12-12T02:09:17.245Z,98076.70
2022-12-12T02:11:50.284Z,98071.76
2022-12-12T02:14:23.606Z,98073.08
2022-12-12T02:17:05.799Z,98073.97
2022-12-12T02:20:07.043Z,98076.08
2022-12-12T02:23:00.786Z,98074.70
2022-12-12T02:25:54.152Z,98078.03
2022-12-12T02:28:46.732Z,98079.54
2022-12-12T02:31:22.964Z,98079.55
2022-12-12T02:33:58.451Z,98083.45
2022-12-12T02:36:38.125Z,98080.84
2022-12-12T02:39:18.836Z,98083.38
2022-12-12T02:41:57.942Z,98082.89
2022-12-12T02:44:35.395Z,98081.79
2022-12-12T02:47:10.847Z,98083.73
2022-12-12T02:49:46.519Z,98083.86
2022-12-12T02:52:18.108Z,98087.38
2022-12-12T02:54:49.745Z,98085.52
2022-12-12T02:57:23.377Z,98082.44
2022-12-12T02:59:57.583Z,98084.73
2022-12-12T03:03:23.024Z,98088.09
2022-12-12T03:06:21.135Z,98086.81
2022-12-12T03:08:57.600Z,98087.73
2022-12-12T03:11:41.119Z,98084.55
2022-12-12T03:14:19.538Z,98089.79
2022-12-12T03:17:01.134Z,98091.14
2022-12-12T03:19:39.605Z,98090.02
2022-12-12T03:22:21.640Z,98090.15
2022-12-12T03:24:59.228Z,98080.24
2022-12-12T03:27:35.900Z,98078.85
2022-12-12T03:30:13.434Z,98080.38
2022-12-12T03:32:50.670Z,98084.41
2022-12-12T03:35:26.139Z,98085.37
2022-12-12T03:38:02.788Z,98084.73
2022-12-12T03:40:40.547Z,98081.14
2022-12-12T03:43:15.531Z,98084.34
2022-12-12T03:45:52.609Z,98082.69
2022-12-12T03:48:28.714Z,98081.16
2022-12-12T03:51:05.515Z,98081.16
2022-12-12T03:53:40.983Z,98077.54
2022-12-12T03:56:19.899Z,98076.94
2022-12-12T03:58:55.051Z,98074.30
2022-12-12T04:01:35.322Z,98073.40
2022-12-12T04:04:13.502Z,98073.94
2022-12-12T04:06:49.683Z,98070.13
2022-12-12T04:09:40.168Z,98072.06
2022-12-12T04:12:35.466Z,98068.54
2022-12-12T04:15:20.677Z,98065.64
2022-12-12T04:18:03.956Z,98060.96
2022-12-12T04:21:02.459Z,98057.45
2022-12-12T04:23:42.789Z,98061.42
2022-12-12T04:26:41.816Z,98060.02
2022-12-12T04:29:25.094Z,98062.20
2022-12-12T04:31:59.922Z,98060.29
2022-12-12T04:34:39.977Z,98061.92
2022-12-12T04:37:15.353Z,98058.46
2022-12-12T04:39:48.583Z,98058.45
2022-12-12T04:42:23.241Z,98061.42
2022-12-12T04:44:56.950Z,98059.12
2022-12-12T04:47:31.993Z,98060.86
2022-12-12T04:50:05.155Z,98061.48
2022-12-12T04:52:37.165Z,98069.88
2022-12-12T04:55:14.891Z,98071.75
2022-12-12T04:57:50.179Z,98075.35
2022-12-12T05:00:21.643Z,98076.52
2022-12-12T05:02:57.804Z,98075.32
2022-12-12T05:05:33.633Z,98068.18
2022-12-12T05:08:10.573Z,98072.85
2022-12-12T05:10:47.106Z,98072.65
2022-12-12T05:13:21.683Z,98071.66
2022-12-12T05:15:55.635Z,98068.61
2022-12-12T05:18:26.630Z,98071.29
2022-12-12T05:20:57.307Z,98072.61
2022-12-12T05:23:34.357Z,98074.30
2022-12-12T05:26:11.061Z,98070.07
2022-12-12T05:28:42.030Z,98077.11
2022-12-12T05:31:13.033Z,98074.54
2022-12-12T05:33:43.819Z,98076.63
2022-12-12T05:36:14.541Z,98077.77
2022-12-12T05:38:45.897Z,98079.02
2022-12-12T05:41:16.824Z,98077.27
2022-12-12T05:43:47.513Z,98086.54
2022-12-12T05:46:18.187Z,98084.73
2022-12-12T05:48:50.765Z,98086.03
2022-12-12T05:51:22.449Z,98083.14
2022-12-12T05:53:53.183Z,98087.19
2022-12-12T05:56:23.983Z,98089.48
2022-12-12T05:58:54.859Z,98096.27
2022-12-12T06:01:25.485Z,98093.95
2022-12-12T06:03:56.423Z,98096.64
2022-12-12T06:06:27.281Z,98098.98
2022-12-12T06:08:58.122Z,98100.98
2022-12-12T06:11:29.880Z,98107.73
2022-12-12T06:14:00.582Z,98106.62
2022-12-12T06:16:32.918Z,98106.48
2022-12-12T06:19:03.834Z,98106.25
2022-12-12T06:21:34.580Z,98105.91
2022-12-12T06:24:05.982Z,98109.20
2022-12-12T06:26:36.969Z,98103.89
2022-12-12T06:29:07.912Z,98111.27
2022-12-12T06:31:38.825Z,98109.79
2022-12-12T06:34:09.698Z,98110.31
2022-12-12T06:36:40.513Z,98113.23
2022-12-12T06:39:11.121Z,98112.60
2022-12-12T06:41:41.934Z,98118.86
2022-12-12T06:44:13.035Z,98115.98
2022-12-12T06:46:43.784Z,98122.78
2022-12-12T06:49:14.534Z,98124.92
2022-12-12T06:51:45.436Z,98128.20
2022-12-12T06:54:17.733Z,98125.89
2022-12-12T06:56:49.719Z,98124.63
2022-12-12T06:59:20.571Z,98123.66
2022-12-12T07:01:51.347Z,98128.63
2022-12-12T07:04:22.213Z,98129.70
2022-12-12T07:06:52.968Z,98128.77
2022-12-12T07:09:23.686Z,98131.63
2022-12-12T07:11:54.442Z,98127.45
2022-12-12T07:14:25.287Z,98134.77
2022-12-12T07:16:56.436Z,98133.20
2022-12-12T07:19:27.271Z,98131.73
2022-12-12T07:21:58.316Z,98134.92
2022-12-12T07:24:29.286Z,98137.71
2022-12-12T07:26:59.997Z,98137.65
2022-12-12T07:29:30.645Z,98137.60
2022-12-12T07:32:01.519Z,98140.77
2022-12-12T07:34:32.941Z,98141.92
2022-12-12T07:37:03.702Z,98139.24
2022-12-12T07:39:35.320Z,98144.84
2022-12-12T07:42:06.170Z,98146.77
2022-12-12T07:44:36.841Z,98148.70
2022-12-12T07:47:07.615Z,98147.71
2022-12-12T07:49:38.308Z,98150.38
2022-12-12T07:52:09.442Z,98148.77
2022-12-12T07:54:40.658Z,98145.14
2022-12-12T07:57:11.511Z,98147.04
2022-12-12T07:59:42.561Z,98144.16
2022-12-12T08:02:14.174Z,98147.49
2022-12-12T08:04:44.940Z,98149.01
2022-12-12T08:07:16.007Z,98149.24
2022-12-12T08:09:46.733Z,98154.20
2022-12-12T08:12:17.445Z,98153.36
2022-12-12T08:14:48.538Z,98165.19
2022-12-12T08:17:19.177Z,98170.65
2022-12-12T08:19:50.111Z,98168.83
2022-12-12T08:22:21.123Z,98167.91
2022-12-12T08:24:52.909Z,98171.03
2022-12-12T08:27:23.540Z,98177.45
2022-12-12T08:29:56.178Z,98175.80
2022-12-12T08:32:26.943Z,98175.91
2022-12-12T08:35:00.096Z,98176.10
2022-12-12T08:37:31.374Z,98180.42
2022-12-12T08:40:02.136Z,98183.27
2022-12-12T08:42:32.978Z,98185.52
2022-12-12T08:45:03.711Z,98183.56
2022-12-12T08:47:34.455Z,98189.19
2022-12-12T08:50:06.201Z,98192.67
2022-12-12T08:52:36.933Z,98189.43
2022-12-12T08:55:08.436Z,98194.73
2022-12-12T08:57:39.064Z,98197.11
2022-12-12T09:00:12.541Z,98200.16
2022-12-12T09:02:43.702Z,98201.61
2022-12-12T09:05:14.858Z,98204.15
2022-12-12T09:07:46.050Z,98203.86
2022-12-12T09:10:16.929Z,98204.33
2022-12-12T09:12:48.005Z,98205.98
2022-12-12T09:15:19.318Z,98208.09
2022-12-12T09:17:50.606Z,98210.39
2022-12-12T09:20:21.433Z,98209.65
2022-12-12T09:22:52.941Z,98208.47
2022-12-12T09:25:26.245Z,98210.03
2022-12-12T09:27:57.000Z,98213.35
2022-12-12T09:30:27.736Z,98216.39
2022-12-12T09:32:58.364Z,98211.45
2022-12-12T09:35:29.212Z,98222.08
2022-12-12T09:37:59.956Z,98225.13
2022-12-12T09:40:35.496Z,98224.56
2022-12-12T09:43:07.199Z,98228.03
2022-12-12T09:45:41.078Z,98224.53
2022-12-12T09:48:10.379Z,98225.37
2022-12-12T09:50:43.769Z,98221.86
2022-12-12T09:53:17.706Z,98221.53
2022-12-12T09:55:53.230Z,98224.58
2022-12-12T09:58:31.216Z,98222.48
2022-12-12T10:01:12.876Z,98223.70
2022-12-12T10:03:57.265Z,98224.00
2022-12-12T10:06:38.108Z,98223.92
2022-12-12T10:09:25.574Z,98222.34
2022-12-12T10:11:57.028Z,98226.92
2022-12-12T10:14:35.562Z,98226.00
2022-12-12T10:17:09.806Z,98227.42
2022-12-12T10:19:50.260Z,98229.25
2022-12-12T10:22:27.624Z,98230.39
2022-12-12T10:25:03.878Z,98232.27
2022-12-12T10:27:34.794Z,98231.48
2022-12-12T10:30:18.158Z,98233.65
2022-12-12T10:33:04.633Z,98230.91
2022-12-12T10:35:42.963Z,98229.78
2022-12-12T10:38:31.469Z,98221.19
2022-12-12T10:41:12.079Z,98231.47
2022-12-12T10:43:49.154Z,98232.35
2022-12-12T10:46:29.630Z,98231.42
2022-12-12T10:49:00.721Z,98230.37
2022-12-12T10:51:32.274Z,98229.42
2022-12-12T10:54:06.799Z,98231.01
2022-12-12T10:56:37.434Z,98226.19
2022-12-12T10:59:11.478Z,98224.77
2022-12-12T11:04:34.392Z,98228.11
2022-12-12T11:07:05.244Z,98229.45
2022-12-12T11:09:45.700Z,98223.13
2022-12-12T11:12:17.970Z,98226.66
2022-12-12T11:14:50.265Z,98225.46
2022-12-12T11:17:26.497Z,98231.44
2022-12-12T11:19:58.855Z,98233.38
2022-12-12T11:22:33.082Z,98234.95
2022-12-12T11:25:04.009Z,98234.06
2022-12-12T11:27:39.216Z,98232.84
2022-12-12T11:30:30.488Z,98237.00
2022-12-12T11:33:02.378Z,98237.02
2022-12-12T11:35:39.082Z,98237.67
2022-12-12T11:38:22.158Z,98239.83
2022-12-12T11:41:02.347Z,98235.15
2022-12-12T11:43:36.848Z,98233.92
2022-12-12T11:46:17.840Z,98234.59
2022-12-12T11:49:00.269Z,98237.39
2022-12-12T11:51:36.825Z,98247.06
2022-12-12T11:54:13.773Z,98248.14
2022-12-12T11:56:54.444Z,98249.82
2022-12-12T11:59:47.932Z,98249.26
2022-12-12T12:02:43.423Z,98243.77
2022-12-12T12:05:26.230Z,98241.34
2022-12-12T12:08:11.668Z,98244.98
2022-12-12T12:10:59.753Z,98249.70
2022-12-12T12:13:50.820Z,98251.81
2022-12-12T12:16:32.546Z,98253.48
2022-12-12T12:19:14.582Z,98247.27
2022-12-12T12:21:56.205Z,98248.09
2022-12-12T12:24:53.366Z,98248.45
2022-12-12T12:27:33.742Z,98248.27
2022-12-12T12:30:14.747Z,98247.38
2022-12-12T12:33:01.181Z,98244.98
2022-12-12T12:35:34.544Z,98243.08
2022-12-12T12:38:18.138Z,98244.09
2022-12-12T12:41:03.314Z,98243.64
2022-12-12T12:43:49.549Z,98249.02
2022-12-12T12:46:29.513Z,98248.58
2022-12-12T12:49:00.822Z,98250.63
2022-12-12T12:51:35.621Z,98249.34
2022-12-12T12:54:14.701Z,98252.64
2022-12-12T12:56:50.973Z,98252.67
2022-12-12T12:59:26.133Z,98255.13
2022-12-12T13:01:58.953Z,98261.21
2022-12-12T13:04:33.284Z,98266.19
2022-12-12T13:07:10.689Z,98272.00
2022-12-12T13:09:47.845Z,98270.13
2022-12-12T13:12:25.354Z,98271.61
2022-12-12T13:15:00.898Z,98277.80
2022-12-12T13:17:46.518Z,98279.06
2022-12-12T13:20:21.980Z,98279.63
2022-12-12T13:23:00.860Z,98282.36
2022-12-12T13:25:39.139Z,98284.34
2022-12-12T13:28:16.649Z,98286.42
2022-12-12T13:31:11.209Z,98293.63
2022-12-12T13:33:47.039Z,98301.70
2022-12-12T13:36:27.606Z,98301.14
2022-12-12T13:39:03.768Z,98303.52
2022-12-12T13:41:58.890Z,98308.78
2022-12-12T13:44:41.660Z,98305.41
2022-12-12T13:47:30.363Z,98307.69
2022-12-12T13:50:04.745Z,98305.87
2022-12-12T13:52:38.949Z,98310.48
2022-12-12T13:55:24.661Z,98309.43
2022-12-12T13:58:18.104Z,98310.66
2022-12-12T14:00:49.466Z,98317.20
2022-12-12T14:03:33.226Z,98320.70
2022-12-12T14:06:19.981Z,98322.96
2022-12-12T14:08:52.764Z,98328.31
2022-12-12T14:11:32.633Z,98331.62
2022-12-12T14:14:18.124Z,98339.36
2022-12-12T14:16:56.982Z,98340.20
2022-12-12T14:19:35.590Z,98341.14
2022-12-12T14:22:06.759Z,98343.16
2022-12-12T14:25:04.463Z,98343.82
2022-12-12T14:28:15.875Z,98350.11
2022-12-12T14:30:58.410Z,98349.73
2022-12-12T14:33:57.522Z,98351.28
2022-12-12T14:37:02.694Z,98349.73
2022-12-12T14:39:51.437Z,98348.31
2022-12-12T14:42:27.979Z,98349.09
2022-12-12T14:45:31.539Z,98353.30
2022-12-12T14:48:29.567Z,98353.36
2022-12-12T14:51:25.902Z,98359.08
2022-12-12T14:54:01.398Z,98358.02
2022-12-12T14:56:36.848Z,98363.42
2022-12-12T14:59:10.211Z,98365.68
2022-12-12T15:01:44.747Z,98366.22
2022-12-12T15:04:20.043Z,98373.00
2022-12-12T15:06:54.299Z,98377.43
2022-12-12T15:09:30.747Z,98380.26
2022-12-12T15:12:16.771Z,98383.96
2022-12-12T15:14:54.268Z,98381.79
2022-12-12T15:17:28.673Z,98387.98
2022-12-12T15:20:02.789Z,98385.86
2022-12-12T15:22:35.333Z,98382.26
2022-12-12T15:25:16.815Z,98388.30
2022-12-12T15:27:55.605Z,98391.64
2022-12-12T15:30:33.508Z,98395.33
2022-12-12T15:33:06.155Z,98396.11
2022-12-12T15:35:37.096Z,98396.11
2022-12-12T15:38:14.077Z,98393.06
2022-12-12T15:40:48.805Z,98399.27
2022-12-12T15:43:23.437Z,98403.89
2022-12-12T15:45:56.987Z,98404.48
2022-12-12T15:48:28.738Z,98402.92
2022-12-12T15:51:01.745Z,98403.09
2022-12-12T15:53:35.084Z,98403.48
2022-12-12T15:56:09.022Z,98405.10
2022-12-12T15:58:42.357Z,98406.05
2022-12-12T16:01:22.308Z,98412.24
2022-12-12T16:04:04.555Z,98417.20
2022-12-12T16:06:37.631Z,98413.77
2022-12-12T16:09:20.054Z,98417.54
2022-12-12T16:11:52.009Z,98423.14
2022-12-12T16:14:41.191Z,98427.71
2022-12-12T16:17:18.521Z,98425.17
2022-12-12T16:19:56.131Z,98425.38
2022-12-12T16:22:41.765Z,98429.84
2022-12-12T16:25:23.560Z,98429.86
2022-12-12T16:27:58.826Z,98430.07
2022-12-12T16:30:30.614Z,98431.23
2022-12-12T16:33:11.822Z,98426.89
2022-12-12T16:35:42.625Z,98422.59
2022-12-12T16:38:18.144Z,98423.58
2022-12-12T16:40:50.860Z,98423.04
2022-12-12T16:43:24.314Z,98417.77
2022-12-12T16:45:56.886Z,98422.05
2022-12-12T16:48:32.496Z,98423.61
2022-12-12T16:51:06.338Z,98425.06
2022-12-12T16:53:38.114Z,98428.44
2022-12-12T16:56:11.398Z,98430.14
2022-12-12T16:58:42.206Z,98427.61
2022-12-12T17:01:14.009Z,98431.42
2022-12-12T17:03:45.146Z,98434.30
2022-12-12T17:06:16.045Z,98435.52
2022-12-12T17:08:47.087Z,98426.65
2022-12-12T17:11:17.885Z,98440.34
2022-12-12T17:13:50.088Z,98442.64
2022-12-12T17:16:27.388Z,98444.19
2022-12-12T17:18:59.267Z,98450.95
2022-12-12T17:21:30.143Z,98452.64
2022-12-12T17:24:01.136Z,98455.14
2022-12-12T17:26:32.279Z,98454.35
2022-12-12T17:29:03.322Z,98453.29
2022-12-12T17:31:34.294Z,98461.78
2022-12-12T17:34:05.930Z,98460.65
2022-12-12T17:36:36.666Z,98462.80
2022-12-12T17:39:07.808Z,98462.58
2022-12-12T17:41:38.501Z,98463.96
2022-12-12T17:44:09.286Z,98462.16
2022-12-12T17:46:41.638Z,98458.88
2022-12-12T17:49:12.501Z,98462.41
2022-12-12T17:51:43.361Z,98461.05
2022-12-12T17:54:14.181Z,98463.67
2022-12-12T17:56:45.022Z,98465.39
2022-12-12T17:59:15.709Z,98466.02
2022-12-12T18:01:48.534Z,98463.09
2022-12-12T18:04:21.880Z,98468.91
2022-12-12T18:06:55.587Z,98466.02
2022-12-12T18:09:26.986Z,98472.15
2022-12-12T18:11:57.941Z,98476.80
2022-12-12T18:14:28.862Z,98475.84
2022-12-12T18:16:59.894Z,98472.64
2022-12-12T18:19:30.879Z,98481.08
2022-12-12T18:22:02.358Z,98482.05
2022-12-12T18:24:33.369Z,98489.38
2022-12-12T18:27:04.619Z,98493.94
2022-12-12T18:29:35.734Z,98496.13
2022-12-12T18:32:06.989Z,98498.96
2022-12-12T18:34:37.961Z,98502.35
2022-12-12T18:37:09.004Z,98501.32
2022-12-12T18:39:39.675Z,98504.13
2022-12-12T18:42:11.951Z,98507.38
2022-12-12T18:44:42.753Z,98511.02
2022-12-12T18:47:13.740Z,98512.83
2022-12-12T18:49:44.762Z,98518.04
2022-12-12T18:52:15.479Z,98519.70
2022-12-12T18:54:46.524Z,98521.29
2022-12-12T18:57:17.597Z,98524.23
2022-12-12T18:59:48.458Z,98526.32
2022-12-12T19:02:19.500Z,98531.03
2022-12-12T19:04:51.345Z,98534.61
2022-12-12T19:07:22.185Z,98535.98
2022-12-12T19:09:53.352Z,98543.60
2022-12-12T19:12:24.556Z,98540.34
2022-12-12T19:17:46.193Z,98544.11
2022-12-12T19:20:17.489Z,98543.79
2022-12-12T19:22:48.502Z,98543.20
2022-12-12T19:25:20.957Z,98543.57
2022-12-12T19:27:52.048Z,98546.52
2022-12-12T19:30:23.203Z,98549.62
2022-12-12T19:32:54.035Z,98555.09
2022-12-12T19:35:25.651Z,98564.81
2022-12-12T19:37:56.605Z,98570.36
2022-12-12T19:40:27.544Z,98578.16
2022-12-12T19:42:58.585Z,98580.66
2022-12-12T19:45:29.590Z,98584.38
2022-12-12T19:48:00.469Z,98583.50
2022-12-12T19:50:31.529Z,98588.98
2022-12-12T19:53:02.359Z,98591.89
2022-12-12T19:55:33.397Z,98594.80
2022-12-12T19:58:04.650Z,98596.62
2022-12-12T20:00:35.821Z,98594.23
2022-12-12T20:03:06.946Z,98590.63
2022-12-12T20:05:37.953Z,98595.44
2022-12-12T20:08:09.123Z,98596.42
2022-12-12T20:10:40.077Z,98596.95
2022-12-12T20:13:11.690Z,98605.05
2022-12-12T20:15:42.749Z,98606.66
2022-12-12T20:18:16.586Z,98608.59
2022-12-12T20:20:51.542Z,98611.95
2022-12-12T20:23:24.591Z,98611.95
2022-12-12T20:25:55.563Z,98611.25
2022-12-12T20:28:27.218Z,98611.57
2022-12-12T20:31:07.443Z,98604.89
2022-12-12T20:33:39.432Z,98602.01
2022-12-12T20:36:12.758Z,98606.20
2022-12-12T20:38:44.600Z,98614.15
2022-12-12T20:41:18.223Z,98619.41
2022-12-12T20:43:48.162Z,98616.54
2022-12-12T20:46:21.075Z,98624.30
2022-12-12T20:48:52.460Z,98624.63
2022-12-12T20:51:53.526Z,98628.94
2022-12-12T20:54:17.157Z,98634.64
2022-12-12T20:56:46.793Z,98639.39
2022-12-12T20:59:17.900Z,98637.86
2022-12-12T21:01:48.864Z,98640.98
2022-12-12T21:04:19.814Z,98642.41
2022-12-12T21:06:51.633Z,98643.55
2022-12-12T21:09:26.828Z,98641.95
2022-12-12T21:11:59.096Z,98638.91
2022-12-12T21:14:33.203Z,98639.25
2022-12-12T21:17:05.065Z,98638.35
2022-12-12T21:19:35.919Z,98633.64
2022-12-12T21:22:08.403Z,98634.08
2022-12-12T21:24:41.583Z,98636.73
2022-12-12T21:27:12.315Z,98636.70
2022-12-12T21:29:43.257Z,98639.20
2022-12-12T21:32:13.894Z,98646.15
2022-12-12T21:34:44.840Z,98649.25
2022-12-12T21:37:15.691Z,98652.84
2022-12-12T21:39:47.225Z,98653.23
2022-12-12T21:42:17.943Z,98654.48
2022-12-12T21:44:48.685Z,98657.65
2022-12-12T21:47:19.473Z,98662.52
2022-12-12T21:49:50.387Z,98662.23
2022-12-12T21:52:21.415Z,98667.66
2022-12-12T21:54:52.117Z,98666.20
2022-12-12T21:57:24.934Z,98665.11
2022-12-12T21:59:55.998Z,98664.67
2022-12-12T22:02:26.678Z,98667.64
2022-12-12T22:04:57.594Z,98667.55
2022-12-12T22:07:28.418Z,98672.77
2022-12-12T22:10:11.159Z,98670.77
2022-12-12T22:12:42.442Z,98670.82
2022-12-12T22:15:27.962Z,98668.58
2022-12-12T22:17:58.934Z,98670.86
2022-12-12T22:20:29.634Z,98663.86
2022-12-12T22:23:00.267Z,98665.13
2022-12-12T22:25:31.955Z,98657.52
2022-12-12T22:28:02.663Z,98660.21
2022-12-12T22:30:33.279Z,98662.21
2022-12-12T22:33:03.939Z,98665.20
2022-12-12T22:35:34.607Z,98670.62
2022-12-12T22:38:05.321Z,98674.19
2022-12-12T22:40:36.058Z,98675.45
2022-12-12T22:43:06.652Z,98675.08
2022-12-12T22:45:38.321Z,98683.73
2022-12-12T22:48:09.388Z,98685.27
2022-12-12T22:50:40.122Z,98684.23
2022-12-12T22:53:11.033Z,98682.45
2022-12-12T22:55:42.202Z,98678.90
2022-12-12T22:58:12.850Z,98678.11
2022-12-12T23:00:43.513Z,98680.03
2022-12-12T23:03:14.121Z,98675.99
2022-12-12T23:05:45.324Z,98676.29
2022-12-12T23:08:16.023Z,98671.77
2022-12-12T23:10:46.849Z,98675.20
2022-12-12T23:13:17.533Z,98674.75
2022-12-12T23:15:48.367Z,98671.97
2022-12-12T23:18:19.352Z,98671.23
2022-12-12T23:20:49.986Z,98671.32
2022-12-12T23:23:21.152Z,98677.36
2022-12-12T23:25:51.930Z,98682.92
2022-12-12T23:28:22.570Z,98685.89
2022-12-12T23:30:53.362Z,98680.48
2022-12-12T23:33:24.058Z,98680.91
2022-12-12T23:35:55.247Z,98681.93
2022-12-12T23:38:25.864Z,98684.55
2022-12-12T23:40:56.534Z,98684.77
2022-12-12T23:43:27.253Z,98685.80
2022-12-12T23:45:57.926Z,98686.70
2022-12-12T23:48:29.300Z,98689.25
2022-12-12T23:51:00.388Z,98687.64
2022-12-12T23:53:33.754Z,98690.47
2022-12-12T23:56:07.280Z,98685.63
2022-12-12T23:58:40.893Z,98683.18
